createdAt,value
2024-02-16T00:02:25.122Z,15.15
2024-02-16T00:04:57.426Z,14.35
2024-02-16T00:07:29.863Z,15.45
2024-02-16T00:10:02.129Z,15.30
2024-02-16T00:12:35.057Z,11.27
2024-02-16T00:15:08.185Z,11.93
2024-02-16T00:17:40.510Z,15.10
2024-02-16T00:20:15.383Z,10.63
2024-02-16T00:22:47.937Z,14.52
2024-02-16T00:25:20.257Z,12.20
2024-02-16T00:27:54.460Z,11.13
2024-02-16T00:30:28.591Z,14.27
2024-02-16T00:33:05.074Z,11.85
2024-02-16T00:35:37.346Z,14.20
2024-02-16T00:38:09.502Z,14.43
2024-02-16T00:40:45.040Z,13.02
2024-02-16T00:43:18.957Z,12.30
2024-02-16T00:45:51.572Z,9.25
2024-02-16T00:48:23.917Z,10.30
2024-02-16T00:50:56.434Z,13.15
2024-02-16T00:53:28.583Z,13.15
2024-02-16T00:56:00.756Z,11.43
2024-02-16T00:58:33.113Z,12.70
2024-02-16T01:01:06.074Z,14.70
2024-02-16T01:03:39.368Z,10.13
2024-02-16T01:06:11.874Z,11.98
2024-02-16T01:08:44.321Z,15.27
2024-02-16T01:11:16.547Z,11.73
2024-02-16T01:13:48.932Z,11.45
2024-02-16T01:16:21.062Z,11.10
2024-02-16T01:18:53.675Z,12.68
2024-02-16T01:21:26.004Z,11.47
2024-02-16T01:24:01.017Z,10.13
2024-02-16T01:26:34.132Z,13.02
2024-02-16T01:29:06.930Z,35.00
2024-02-16T01:31:39.513Z,23.40
2024-02-16T01:34:12.311Z,17.33
2024-02-16T01:36:44.822Z,15.80
2024-02-16T01:39:17.100Z,22.70
2024-02-16T01:41:49.290Z,14.15
2024-02-16T01:44:21.573Z,17.27
2024-02-16T01:46:54.216Z,14.80
2024-02-16T01:49:26.710Z,21.50
2024-02-16T01:51:59.019Z,16.58
2024-02-16T01:54:31.290Z,21.40
2024-02-16T01:57:05.785Z,22.33
2024-02-16T01:59:38.435Z,22.58
2024-02-16T02:02:10.679Z,19.27
2024-02-16T02:04:43.515Z,13.95
2024-02-16T02:07:17.850Z,13.18
2024-02-16T02:09:50.167Z,15.10
2024-02-16T02:12:23.812Z,14.43
2024-02-16T02:14:56.063Z,14.88
2024-02-16T02:17:28.645Z,13.25
2024-02-16T02:20:01.230Z,13.88
2024-02-16T02:22:33.525Z,11.10
2024-02-16T02:25:06.362Z,10.65
2024-02-16T02:27:39.572Z,7.97
2024-02-16T02:30:12.491Z,11.65
2024-02-16T02:32:45.014Z,13.18
2024-02-16T02:35:18.940Z,10.82
2024-02-16T02:37:51.169Z,9.82
2024-02-16T02:40:23.761Z,12.23
2024-02-16T02:42:56.058Z,12.23
2024-02-16T02:45:28.669Z,11.30
2024-02-16T02:48:01.589Z,11.20
2024-02-16T02:50:33.920Z,13.77
2024-02-16T02:53:25.090Z,11.60
2024-02-16T02:55:58.090Z,11.77
2024-02-16T02:58:30.494Z,10.23
2024-02-16T03:01:02.683Z,12.60
2024-02-16T03:03:35.329Z,11.48
2024-02-16T03:06:08.818Z,16.63
2024-02-16T03:11:13.484Z,13.27
2024-02-16T03:13:45.936Z,9.50
2024-02-16T03:16:18.295Z,11.57
2024-02-16T03:18:51.305Z,12.43
2024-02-16T03:21:23.787Z,11.25
2024-02-16T03:23:56.247Z,13.10
2024-02-16T03:26:28.959Z,12.70
2024-02-16T03:29:01.069Z,14.13
2024-02-16T03:31:34.763Z,11.70
2024-02-16T03:34:07.104Z,21.98
2024-02-16T03:36:40.149Z,14.48
2024-02-16T03:39:12.498Z,13.80
2024-02-16T03:41:44.707Z,10.77
2024-02-16T03:44:17.579Z,14.27
2024-02-16T03:46:50.400Z,10.13
2024-02-16T03:49:23.905Z,10.10
2024-02-16T03:51:56.270Z,11.80
2024-02-16T03:54:28.588Z,10.90
2024-02-16T03:57:01.928Z,10.13
2024-02-16T03:59:34.145Z,14.23
2024-02-16T04:02:06.413Z,11.10
2024-02-16T04:04:39.029Z,9.93
2024-02-16T04:07:11.386Z,9.40
2024-02-16T04:09:43.617Z,10.48
2024-02-16T04:12:16.170Z,13.50
2024-02-16T04:14:48.615Z,10.02
2024-02-16T04:17:20.914Z,11.18
2024-02-16T04:19:53.161Z,13.50
2024-02-16T04:22:25.979Z,12.63
2024-02-16T04:24:58.078Z,9.07
2024-02-16T04:27:30.621Z,8.95
2024-02-16T04:30:04.056Z,9.82
2024-02-16T04:35:13.347Z,6.88
2024-02-16T04:37:45.847Z,10.32
2024-02-16T04:40:18.091Z,11.18
2024-02-16T04:42:50.246Z,10.27
2024-02-16T04:45:22.937Z,8.13
2024-02-16T04:47:55.168Z,10.03
2024-02-16T04:50:28.409Z,6.90
2024-02-16T04:53:02.897Z,5.93
2024-02-16T04:55:35.573Z,6.05
2024-02-16T04:58:10.931Z,5.93
2024-02-16T05:00:44.211Z,5.90
2024-02-16T05:03:16.756Z,6.47
2024-02-16T05:05:49.399Z,5.93
2024-02-16T05:08:23.792Z,6.30
2024-02-16T05:10:56.654Z,7.95
2024-02-16T05:13:28.868Z,7.35
2024-02-16T05:16:01.129Z,5.88
2024-02-16T05:18:33.842Z,5.75
2024-02-16T05:21:06.352Z,6.47
2024-02-16T05:23:38.714Z,7.70
2024-02-16T05:26:11.829Z,13.38
2024-02-16T05:28:44.054Z,18.40
2024-02-16T05:31:19.969Z,26.58
2024-02-16T05:33:53.034Z,11.60
2024-02-16T05:36:29.015Z,9.48
2024-02-16T05:39:11.110Z,7.28
2024-02-16T05:41:43.565Z,7.90
2024-02-16T05:44:15.850Z,9.30
2024-02-16T05:46:49.229Z,7.50
2024-02-16T05:49:22.116Z,8.85
2024-02-16T05:52:13.023Z,11.32
2024-02-16T05:54:51.458Z,6.13
2024-02-16T05:57:25.822Z,9.27
2024-02-16T05:59:59.776Z,6.28
2024-02-16T06:02:33.777Z,8.68
2024-02-16T06:05:07.404Z,13.13
2024-02-16T06:10:13.417Z,18.27
2024-02-16T06:12:45.795Z,18.83
2024-02-16T06:15:18.387Z,15.90
2024-02-16T06:17:51.769Z,11.73
2024-02-16T06:20:26.829Z,12.68
2024-02-16T06:22:59.358Z,11.35
2024-02-16T06:25:31.821Z,11.10
2024-02-16T06:28:05.999Z,12.07
2024-02-16T06:30:38.311Z,5.57
2024-02-16T06:33:11.560Z,7.68
2024-02-16T06:35:43.869Z,6.50
2024-02-16T06:38:16.064Z,4.40
2024-02-16T06:40:48.457Z,5.30
2024-02-16T06:43:21.787Z,4.15
2024-02-16T06:45:56.591Z,8.40
2024-02-16T06:48:29.150Z,4.95
2024-02-16T06:51:01.870Z,3.97
2024-02-16T06:53:34.329Z,4.63
2024-02-16T06:56:06.690Z,13.70
2024-02-16T06:58:38.887Z,6.28
2024-02-16T07:01:11.245Z,4.65
2024-02-16T07:03:45.491Z,4.35
2024-02-16T07:06:18.175Z,6.63
2024-02-16T07:08:50.634Z,8.82
2024-02-16T07:11:23.286Z,4.45
2024-02-16T07:13:56.050Z,4.80
2024-02-16T07:16:28.205Z,6.45
2024-02-16T07:19:00.749Z,5.88
2024-02-16T07:21:33.323Z,11.20
2024-02-16T07:24:06.009Z,17.80
2024-02-16T07:26:38.327Z,19.33
2024-02-16T07:29:10.566Z,9.15
2024-02-16T07:31:43.191Z,19.77
2024-02-16T07:34:15.793Z,13.93
2024-02-16T07:36:48.618Z,13.38
2024-02-16T07:39:24.012Z,19.53
2024-02-16T07:41:56.391Z,15.70
2024-02-16T07:44:29.777Z,14.05
2024-02-16T07:47:02.560Z,23.38
2024-02-16T07:49:35.005Z,10.63
2024-02-16T07:52:07.718Z,12.70
2024-02-16T07:54:40.449Z,12.38
2024-02-16T07:57:12.800Z,11.63
2024-02-16T07:59:45.248Z,13.75
2024-02-16T08:02:19.070Z,10.63
2024-02-16T08:04:52.608Z,6.75
2024-02-16T08:09:57.440Z,10.23
2024-02-16T08:12:29.856Z,13.80
2024-02-16T08:15:02.666Z,14.93
2024-02-16T08:17:36.733Z,12.18
2024-02-16T08:20:12.403Z,9.77
2024-02-16T08:22:45.420Z,7.45
2024-02-16T08:25:17.722Z,6.85
2024-02-16T08:27:51.159Z,5.10
2024-02-16T08:30:23.510Z,6.35
2024-02-16T08:32:56.583Z,6.57
2024-02-16T08:35:29.613Z,6.55
2024-02-16T08:38:02.756Z,5.45
2024-02-16T08:40:35.551Z,7.77
2024-02-16T08:43:10.486Z,6.87
2024-02-16T08:45:42.930Z,4.20
2024-02-16T08:48:15.529Z,4.70
2024-02-16T08:50:48.827Z,4.85
2024-02-16T08:53:21.082Z,6.57
2024-02-16T08:55:53.273Z,4.28
2024-02-16T08:58:25.512Z,7.80
2024-02-16T09:00:57.788Z,3.50
2024-02-16T09:03:30.564Z,2.53
2024-02-16T09:06:02.979Z,3.53
2024-02-16T09:08:36.830Z,10.13
2024-02-16T09:11:09.275Z,3.65
2024-02-16T09:13:42.459Z,4.32
2024-02-16T09:16:15.339Z,5.20
2024-02-16T09:18:49.725Z,3.55
2024-02-16T09:21:22.143Z,3.08
2024-02-16T09:23:54.525Z,5.32
2024-02-16T09:26:31.491Z,2.03
2024-02-16T09:29:04.379Z,2.28
2024-02-16T09:31:36.601Z,2.70
2024-02-16T09:34:09.064Z,2.15
2024-02-16T09:36:41.571Z,6.18
2024-02-16T09:39:13.950Z,3.95
2024-02-16T09:41:51.604Z,3.15
2024-02-16T09:44:24.347Z,2.30
2024-02-16T09:46:57.422Z,7.30
2024-02-16T09:49:38.617Z,2.60
2024-02-16T09:52:15.992Z,2.80
2024-02-16T09:54:48.671Z,4.35
2024-02-16T09:57:21.229Z,4.07
2024-02-16T09:59:53.528Z,3.15
2024-02-16T10:02:25.857Z,2.33
2024-02-16T10:04:58.419Z,1.17
2024-02-16T10:07:34.489Z,2.23
2024-02-16T10:10:21.799Z,3.33
2024-02-16T10:13:05.483Z,4.10
2024-02-16T10:15:38.237Z,1.80
2024-02-16T10:18:10.674Z,2.40
2024-02-16T10:20:46.012Z,2.13
2024-02-16T10:23:18.358Z,4.07
2024-02-16T10:25:50.670Z,4.65
2024-02-16T10:28:29.070Z,5.85
2024-02-16T10:31:06.768Z,3.20
2024-02-16T10:33:39.676Z,2.28
2024-02-16T10:36:12.553Z,2.35
2024-02-16T10:38:46.927Z,2.90
2024-02-16T10:41:22.073Z,2.95
2024-02-16T10:43:56.317Z,2.13
2024-02-16T10:46:28.847Z,1.65
2024-02-16T10:49:02.026Z,2.45
2024-02-16T10:51:48.392Z,3.75
2024-02-16T10:54:23.870Z,2.15
2024-02-16T10:56:56.866Z,3.88
2024-02-16T10:59:49.289Z,1.13
2024-02-16T11:02:22.251Z,2.40
2024-02-16T11:04:54.882Z,2.28
2024-02-16T11:07:27.530Z,6.20
2024-02-16T11:10:01.566Z,4.40
2024-02-16T11:12:36.863Z,2.88
2024-02-16T11:15:09.782Z,3.03
2024-02-16T11:17:42.310Z,2.03
2024-02-16T11:20:14.686Z,3.28
2024-02-16T11:22:47.282Z,3.58
2024-02-16T11:25:19.667Z,3.50
2024-02-16T11:27:52.788Z,1.80
2024-02-16T11:30:24.956Z,4.72
2024-02-16T11:32:57.309Z,7.68
2024-02-16T11:35:29.556Z,3.92
2024-02-16T11:38:03.202Z,4.43
2024-02-16T11:40:36.401Z,2.88
2024-02-16T11:43:08.668Z,9.20
2024-02-16T11:45:41.131Z,2.67
2024-02-16T11:48:14.292Z,2.03
2024-02-16T11:50:46.535Z,5.40
2024-02-16T11:53:22.488Z,2.60
2024-02-16T11:55:54.770Z,4.53
2024-02-16T11:58:27.583Z,3.45
2024-02-16T12:01:03.904Z,5.18
2024-02-16T12:03:37.159Z,5.55
2024-02-16T12:06:09.715Z,5.05
2024-02-16T12:08:42.512Z,3.75
2024-02-16T12:11:15.809Z,3.88
2024-02-16T12:13:48.005Z,5.10
2024-02-16T12:16:21.618Z,3.70
2024-02-16T12:19:04.483Z,8.63
2024-02-16T12:21:36.865Z,5.60
2024-02-16T12:24:09.431Z,3.88
2024-02-16T12:26:42.554Z,3.58
2024-02-16T12:29:15.517Z,7.93
2024-02-16T12:31:50.656Z,4.40
2024-02-16T12:34:23.382Z,3.05
2024-02-16T12:36:55.877Z,3.13
2024-02-16T12:39:28.206Z,4.80
2024-02-16T12:42:00.498Z,7.05
2024-02-16T12:44:33.147Z,6.97
2024-02-16T12:47:05.446Z,2.70
2024-02-16T12:49:38.055Z,3.10
2024-02-16T12:52:10.404Z,3.43
2024-02-16T12:54:44.757Z,6.97
2024-02-16T12:57:17.288Z,4.85
2024-02-16T12:59:50.590Z,4.40
2024-02-16T13:02:22.810Z,8.15
2024-02-16T13:04:55.946Z,6.50
2024-02-16T13:07:28.333Z,3.45
2024-02-16T13:10:00.789Z,4.63
2024-02-16T13:12:33.681Z,2.70
2024-02-16T13:15:18.912Z,5.28
2024-02-16T13:17:59.393Z,2.33
2024-02-16T13:20:32.124Z,3.15
2024-02-16T13:23:06.773Z,5.90
2024-02-16T13:25:40.293Z,4.57
2024-02-16T13:28:13.052Z,4.30
2024-02-16T13:30:45.217Z,5.78
2024-02-16T13:33:17.531Z,3.42
2024-02-16T13:35:49.892Z,5.80
2024-02-16T13:38:22.420Z,4.68
2024-02-16T13:40:54.522Z,9.32
2024-02-16T13:43:27.682Z,6.10
2024-02-16T13:46:00.052Z,4.72
2024-02-16T13:48:32.457Z,3.53
2024-02-16T13:51:07.020Z,3.95
2024-02-16T13:53:39.615Z,3.70
2024-02-16T13:56:11.884Z,5.07
2024-02-16T13:58:44.488Z,4.65
2024-02-16T14:01:17.211Z,7.90
2024-02-16T14:03:52.375Z,9.27
2024-02-16T14:06:24.932Z,4.90
2024-02-16T14:08:58.776Z,9.02
2024-02-16T14:11:31.272Z,3.60
2024-02-16T14:14:04.221Z,6.28
2024-02-16T14:16:36.375Z,6.13
2024-02-16T14:19:08.865Z,5.35
2024-02-16T14:21:41.229Z,6.07
2024-02-16T14:24:13.455Z,7.88
2024-02-16T14:26:45.617Z,4.13
2024-02-16T14:29:18.698Z,5.20
2024-02-16T14:31:50.974Z,5.90
2024-02-16T14:34:23.475Z,4.93
2024-02-16T14:36:56.096Z,6.38
2024-02-16T14:39:28.627Z,5.97
2024-02-16T14:42:01.243Z,6.25
2024-02-16T14:44:33.457Z,5.47
2024-02-16T14:47:05.898Z,5.35
2024-02-16T14:49:38.523Z,8.82
2024-02-16T14:52:11.262Z,10.32
2024-02-16T14:54:44.761Z,5.63
2024-02-16T14:57:21.398Z,4.65
2024-02-16T14:59:56.974Z,12.35
2024-02-16T15:02:29.249Z,11.23
2024-02-16T15:05:01.767Z,6.65
2024-02-16T15:07:34.398Z,10.03
2024-02-16T15:10:07.605Z,5.43
2024-02-16T15:12:41.616Z,7.45
2024-02-16T15:15:14.903Z,6.60
2024-02-16T15:17:49.996Z,10.55
2024-02-16T15:20:23.631Z,5.22
2024-02-16T15:25:29.483Z,7.45
2024-02-16T15:28:01.751Z,10.38
2024-02-16T15:30:34.039Z,8.98
2024-02-16T15:33:06.559Z,6.30
2024-02-16T15:35:38.846Z,8.77
2024-02-16T15:38:11.284Z,6.50
2024-02-16T15:40:43.954Z,5.75
2024-02-16T15:43:17.385Z,8.90
2024-02-16T15:45:51.273Z,7.45
2024-02-16T15:48:24.031Z,7.15
2024-02-16T15:50:57.215Z,6.90
2024-02-16T15:53:32.638Z,10.77
2024-02-16T15:56:07.388Z,6.30
2024-02-16T15:58:40.605Z,11.02
2024-02-16T16:01:13.191Z,11.98
2024-02-16T16:03:47.669Z,25.75
2024-02-16T16:06:20.315Z,24.17
2024-02-16T16:08:53.216Z,21.42
2024-02-16T16:11:26.539Z,10.48
2024-02-16T16:14:00.082Z,12.70
2024-02-16T16:16:33.421Z,18.67
2024-02-16T16:19:06.348Z,15.20
2024-02-16T16:21:39.036Z,20.50
2024-02-16T16:24:15.445Z,23.05
2024-02-16T16:26:50.054Z,31.67
2024-02-16T16:29:22.821Z,31.17
2024-02-16T16:31:59.733Z,25.65
2024-02-16T16:34:33.921Z,17.15
2024-02-16T16:37:07.279Z,17.73
2024-02-16T16:39:40.315Z,12.38
2024-02-16T16:42:15.145Z,13.25
2024-02-16T16:44:49.241Z,12.00
2024-02-16T16:47:21.753Z,12.30
2024-02-16T16:49:56.367Z,12.35
2024-02-16T16:52:29.014Z,8.45
2024-02-16T16:55:05.165Z,15.20
2024-02-16T16:57:38.152Z,11.05
2024-02-16T17:00:12.188Z,12.10
2024-02-16T17:07:51.203Z,6.15
2024-02-16T17:10:23.379Z,9.15
2024-02-16T17:12:55.950Z,9.30
2024-02-16T17:15:32.214Z,10.13
2024-02-16T17:18:06.654Z,6.05
2024-02-16T17:20:41.673Z,7.90
2024-02-16T17:23:14.273Z,7.10
2024-02-16T17:25:46.848Z,5.22
2024-02-16T17:28:19.076Z,5.57
2024-02-16T17:30:51.678Z,7.93
2024-02-16T17:33:24.018Z,8.23
2024-02-16T17:35:56.715Z,7.37
2024-02-16T17:38:29.044Z,8.80
2024-02-16T17:41:03.809Z,6.68
2024-02-16T17:43:38.018Z,6.82
2024-02-16T17:46:10.190Z,9.68
2024-02-16T17:48:42.557Z,8.32
2024-02-16T17:51:14.938Z,7.78
2024-02-16T17:53:47.812Z,6.03
2024-02-16T17:56:20.986Z,9.38
2024-02-16T17:58:53.910Z,14.70
2024-02-16T18:01:26.237Z,18.92
2024-02-16T18:06:33.545Z,11.10
2024-02-16T18:09:05.912Z,15.83
2024-02-16T18:11:38.141Z,14.43
2024-02-16T18:14:10.830Z,14.48
2024-02-16T18:16:42.988Z,11.10
2024-02-16T18:19:16.885Z,10.07
2024-02-16T18:21:49.253Z,10.45
2024-02-16T18:24:21.917Z,9.50
2024-02-16T18:26:54.110Z,12.38
2024-02-16T18:29:26.636Z,11.38
2024-02-16T18:31:58.958Z,11.07
2024-02-16T18:34:32.976Z,8.60
2024-02-16T18:37:05.541Z,13.35
2024-02-16T18:39:37.738Z,11.98
2024-02-16T18:42:10.404Z,11.98
2024-02-16T18:44:42.913Z,12.05
2024-02-16T18:47:15.026Z,9.88
2024-02-16T18:49:49.623Z,9.15
2024-02-16T18:52:22.507Z,8.73
2024-02-16T18:54:54.805Z,12.40
2024-02-16T18:57:27.046Z,12.48
2024-02-16T18:59:59.313Z,8.60
2024-02-16T19:02:32.181Z,10.63
2024-02-16T19:05:05.043Z,10.85
2024-02-16T19:07:37.437Z,13.07
2024-02-16T19:10:09.869Z,23.60
2024-02-16T19:12:42.132Z,20.80
2024-02-16T19:15:14.442Z,9.02
2024-02-16T19:17:47.799Z,14.88
2024-02-16T19:20:20.047Z,18.52
2024-02-16T19:22:55.390Z,15.52
2024-02-16T19:25:27.612Z,16.90
2024-02-16T19:28:00.564Z,15.52
2024-02-16T19:30:32.668Z,13.52
2024-02-16T19:33:05.522Z,17.95
2024-02-16T19:35:40.385Z,15.23
2024-02-16T19:38:15.389Z,16.20
2024-02-16T19:40:48.032Z,26.35
2024-02-16T19:43:20.486Z,23.55
2024-02-16T19:45:52.769Z,25.95
2024-02-16T19:48:25.741Z,30.95
2024-02-16T19:50:58.644Z,22.63
2024-02-16T19:53:31.135Z,23.30
2024-02-16T19:56:03.493Z,23.38
2024-02-16T19:58:35.810Z,23.33
2024-02-16T20:01:08.307Z,21.00
2024-02-16T20:03:40.815Z,14.18
2024-02-16T20:06:13.118Z,21.85
2024-02-16T20:08:45.403Z,20.40
2024-02-16T20:11:18.423Z,20.67
2024-02-16T20:13:52.338Z,18.08
2024-02-16T20:16:24.705Z,18.85
2024-02-16T20:18:59.085Z,19.75
2024-02-16T20:21:36.081Z,17.48
2024-02-16T20:24:08.984Z,16.38
2024-02-16T20:26:42.098Z,18.90
2024-02-16T20:29:14.263Z,15.85
2024-02-16T20:31:46.407Z,17.10
2024-02-16T20:34:18.715Z,17.23
2024-02-16T20:36:52.784Z,15.23
2024-02-16T20:39:25.038Z,16.35
2024-02-16T20:41:57.287Z,14.38
2024-02-16T20:44:29.621Z,16.25
2024-02-16T20:47:02.006Z,14.95
2024-02-16T20:49:35.098Z,19.47
2024-02-16T20:52:07.364Z,15.40
2024-02-16T20:54:39.804Z,12.60
2024-02-16T20:57:12.970Z,16.85
2024-02-16T20:59:45.988Z,15.87
2024-02-16T21:02:20.333Z,18.10
2024-02-16T21:04:53.266Z,16.55
2024-02-16T21:07:27.140Z,12.73
2024-02-16T21:09:59.697Z,17.42
2024-02-16T21:12:32.218Z,13.13
2024-02-16T21:15:04.973Z,18.77
2024-02-16T21:17:37.595Z,18.60
2024-02-16T21:20:13.107Z,19.25
2024-02-16T21:22:45.679Z,15.90
2024-02-16T21:25:17.852Z,16.95
2024-02-16T21:27:50.364Z,17.10
2024-02-16T21:30:23.029Z,17.08
2024-02-16T21:32:55.513Z,17.00
2024-02-16T21:35:33.490Z,11.70
2024-02-16T21:38:07.547Z,20.27
2024-02-16T21:40:39.769Z,12.45
2024-02-16T21:43:12.024Z,9.30
2024-02-16T21:45:44.892Z,12.38
2024-02-16T21:48:22.984Z,15.55
2024-02-16T21:51:02.066Z,10.90
2024-02-16T21:53:34.433Z,11.52
2024-02-16T21:56:07.218Z,13.10
2024-02-16T21:58:42.678Z,10.20
2024-02-16T22:01:16.273Z,15.80
2024-02-16T22:03:52.329Z,10.90
2024-02-16T22:06:28.201Z,10.55
2024-02-16T22:09:00.921Z,10.70
2024-02-16T22:11:34.002Z,16.48
2024-02-16T22:14:06.449Z,15.75
2024-02-16T22:16:40.674Z,11.57
2024-02-16T22:19:13.103Z,15.23
2024-02-16T22:21:45.944Z,14.38
2024-02-16T22:24:18.145Z,15.00
2024-02-16T22:26:50.259Z,19.40
2024-02-16T22:29:22.476Z,20.88
2024-02-16T22:32:00.162Z,17.85
2024-02-16T22:34:40.741Z,18.80
2024-02-16T22:37:13.029Z,16.02
2024-02-16T22:39:45.514Z,17.63
2024-02-16T22:42:17.822Z,14.93
2024-02-16T22:44:50.526Z,13.63
2024-02-16T22:47:22.960Z,17.13
2024-02-16T22:49:55.642Z,13.55
2024-02-16T22:52:28.101Z,11.23
2024-02-16T22:55:00.996Z,13.40
2024-02-16T22:57:33.342Z,16.05
2024-02-16T23:00:18.837Z,12.77
2024-02-16T23:02:55.669Z,15.48
2024-02-16T23:05:28.327Z,12.65
2024-02-16T23:08:02.362Z,14.80
2024-02-16T23:10:35.307Z,17.40
2024-02-16T23:13:07.764Z,24.02
2024-02-16T23:15:39.958Z,15.40
2024-02-16T23:18:12.341Z,21.00
2024-02-16T23:20:45.513Z,16.67
2024-02-16T23:23:18.130Z,17.23
2024-02-16T23:25:51.229Z,11.73
2024-02-16T23:28:23.537Z,14.38
2024-02-16T23:30:55.921Z,12.88
2024-02-16T23:33:28.267Z,19.20
2024-02-16T23:36:00.560Z,20.92
2024-02-16T23:38:32.894Z,16.45
2024-02-16T23:41:05.738Z,14.10
2024-02-16T23:43:38.353Z,16.98
2024-02-16T23:46:10.996Z,18.77
2024-02-16T23:48:50.898Z,20.02
2024-02-16T23:51:26.213Z,17.80
2024-02-16T23:53:59.035Z,17.38
2024-02-16T23:56:31.476Z,19.73
2024-02-16T23:59:04.971Z,17.92
